Archival Weather

Chicago O'Hare International

Chicago, Illinois (KORD)

Report from: Tuesday, May 2, 2023 1:51 PM CDT
Current time: Sunday, February 25, 2024 3:23 PM CST

Current weather – Weather history – Daily summaries
Weather forecast

Temperature12.2°C (54.0°F)
Dew point0.0°C (32.0°F)
Winds 18 kts (9.3 m/s, 20.7 mph) Northwest (310°)
Wind gusts 27 kts (13.9 m/s, 31.1 mph)
Peak wind 27 kts (13.9 m/s, 31.1 mph) Northwest (310°) at 18:35
Visibility10 mi. (16.1 km)
Clouds Ceiling: Overcast 5,500 ft. (1,676 m)
Altimeter29.58 in.Hg (1002 mB)
Relative humidity43 %
Density altitude157 ft. (48 m)
Sea-level pressure100.2 kPa (1002 mB, 29.58 in.Hg)
Remarks Automated weather observing station with precipitation discriminator
Flight conditions Visual Meteorological Conditions
Raw dataKORD 021851Z 31018G27KT 10SM OVC055 12/00 A2958 RMK AO2 PK WND 31027/1835 SLP016 T01220000
An error has occurred. This application may no longer respond until reloaded. Reload 🗙